createdAt,value
2018-04-08T00:00:31.215Z,22.85
2018-04-08T00:01:40.121Z,22.83
2018-04-08T00:02:49.028Z,22.88
2018-04-08T00:03:57.678Z,22.86
2018-04-08T00:05:06.322Z,22.86
2018-04-08T00:06:15.484Z,22.88
2018-04-08T00:07:24.404Z,22.86
2018-04-08T00:08:33.820Z,22.91
2018-04-08T00:09:42.694Z,22.88
2018-04-08T00:10:51.843Z,22.83
2018-04-08T00:12:00.988Z,22.83
2018-04-08T00:13:10.133Z,22.83
2018-04-08T00:14:19.288Z,22.9
2018-04-08T00:15:28.169Z,22.85
2018-04-08T00:16:37.080Z,22.91
2018-04-08T00:17:45.975Z,22.86
2018-04-08T00:18:54.895Z,22.92
2018-04-08T00:20:03.783Z,22.85
2018-04-08T00:21:12.684Z,22.86
2018-04-08T00:22:21.822Z,22.9
2018-04-08T00:23:30.723Z,22.88
2018-04-08T00:24:39.366Z,22.88
2018-04-08T00:25:48.269Z,22.9
2018-04-08T00:26:56.914Z,22.88
2018-04-08T00:28:05.816Z,22.83
2018-04-08T00:29:14.721Z,22.9
2018-04-08T00:30:23.366Z,22.86
2018-04-08T00:31:32.055Z,22.91
2018-04-08T00:32:41.213Z,22.91
2018-04-08T00:33:50.388Z,22.9
2018-04-08T00:34:59.026Z,22.85
2018-04-08T00:36:08.186Z,22.86
2018-04-08T00:37:17.115Z,22.91
2018-04-08T00:38:26.018Z,22.83
2018-04-08T00:39:34.925Z,22.9
2018-04-08T00:40:44.330Z,22.86
2018-04-08T00:41:53.484Z,22.9
2018-04-08T00:43:02.894Z,22.85
2018-04-08T00:44:12.135Z,22.82
2018-04-08T00:45:21.537Z,22.88
2018-04-08T00:46:30.737Z,22.86
2018-04-08T00:47:39.626Z,22.8
2018-04-08T00:48:48.886Z,22.85
2018-04-08T00:49:59.120Z,22.85
2018-04-08T00:51:08.832Z,22.9
2018-04-08T00:52:17.751Z,22.91
2018-04-08T00:53:27.242Z,22.88
2018-04-08T00:54:36.118Z,22.85
2018-04-08T00:55:44.798Z,22.9
2018-04-08T00:56:54.518Z,22.85
2018-04-08T00:58:03.409Z,22.9
2018-04-08T00:59:12.043Z,22.85
2018-04-08T01:00:21.191Z,22.86
2018-04-08T01:01:30.357Z,22.88
2018-04-08T01:02:40.024Z,22.86
2018-04-08T01:03:48.919Z,22.86
2018-04-08T01:04:58.122Z,22.85
2018-04-08T01:06:06.763Z,22.85
2018-04-08T01:07:15.447Z,22.85
2018-04-08T01:08:24.606Z,22.82
2018-04-08T01:09:33.771Z,22.82
2018-04-08T01:10:42.917Z,22.88
2018-04-08T01:11:51.809Z,22.77
2018-04-08T01:13:01.298Z,22.8
2018-04-08T01:14:10.557Z,22.8
2018-04-08T01:15:19.450Z,22.8
2018-04-08T01:16:28.349Z,22.82
2018-04-08T01:17:36.982Z,22.77
2018-04-08T01:18:45.885Z,22.82
2018-04-08T01:19:54.787Z,22.79
2018-04-08T01:21:03.698Z,22.8
2018-04-08T01:22:12.670Z,22.77
2018-04-08T01:23:21.314Z,22.85
2018-04-08T01:24:30.239Z,22.79
2018-04-08T01:25:39.486Z,22.77
2018-04-08T01:26:48.386Z,22.82
2018-04-08T01:27:57.015Z,22.79
2018-04-08T01:29:05.649Z,22.83
2018-04-08T01:30:14.545Z,22.86
2018-04-08T01:31:23.788Z,22.82
2018-04-08T01:32:32.944Z,22.85
2018-04-08T01:33:41.825Z,22.8
2018-04-08T01:34:50.760Z,22.85
2018-04-08T01:35:59.656Z,22.79
2018-04-08T01:37:09.306Z,22.79
2018-04-08T01:38:18.200Z,22.79
2018-04-08T01:39:27.346Z,22.73
2018-04-08T01:40:36.246Z,22.76
2018-04-08T01:41:45.673Z,22.76
2018-04-08T01:42:54.328Z,22.72
2018-04-08T01:44:03.745Z,22.77
2018-04-08T01:45:12.891Z,22.76
2018-04-08T01:46:22.320Z,22.77
2018-04-08T01:47:31.715Z,22.8
2018-04-08T01:48:40.897Z,22.75
2018-04-08T01:49:49.790Z,22.77
2018-04-08T01:50:59.449Z,22.75
2018-04-08T01:52:08.613Z,22.77
2018-04-08T01:53:17.254Z,22.73
2018-04-08T01:54:26.400Z,22.76
2018-04-08T01:55:35.565Z,22.72
2018-04-08T01:56:44.206Z,22.77
2018-04-08T01:57:53.377Z,22.68
2018-04-08T01:59:02.298Z,22.75
2018-04-08T02:00:11.186Z,22.72
2018-04-08T02:01:20.326Z,22.68
2018-04-08T02:02:28.967Z,22.7
2018-04-08T02:03:38.647Z,22.7
2018-04-08T02:04:47.796Z,22.65
2018-04-08T02:05:56.699Z,22.73
2018-04-08T02:07:05.848Z,22.7
2018-04-08T02:08:15.001Z,22.79
2018-04-08T02:09:24.154Z,22.72
2018-04-08T02:10:33.422Z,22.76
2018-04-08T02:11:42.573Z,22.75
2018-04-08T02:12:51.742Z,22.75
2018-04-08T02:14:01.147Z,22.68
2018-04-08T02:15:10.042Z,22.73
2018-04-08T02:16:19.503Z,22.7
2018-04-08T02:17:28.662Z,22.73
2018-04-08T02:18:38.066Z,22.75
2018-04-08T02:19:47.209Z,22.7
2018-04-08T02:20:56.124Z,22.76
2018-04-08T02:22:05.015Z,22.75
2018-04-08T02:23:14.526Z,22.62
2018-04-08T02:24:23.430Z,22.73
2018-04-08T02:25:32.869Z,22.72
2018-04-08T02:26:42.038Z,22.73
2018-04-08T02:27:51.183Z,22.7
2018-04-08T02:29:00.325Z,22.65
2018-04-08T02:30:09.731Z,22.72
2018-04-08T02:31:18.876Z,22.68
2018-04-08T02:32:28.027Z,22.72
2018-04-08T02:33:37.706Z,22.7
2018-04-08T02:34:46.596Z,22.67
2018-04-08T02:35:55.496Z,22.72
2018-04-08T02:37:04.400Z,22.68
2018-04-08T02:38:13.304Z,22.7
2018-04-08T02:39:22.460Z,22.68
2018-04-08T02:40:31.393Z,22.72
2018-04-08T02:41:40.544Z,22.72
2018-04-08T02:42:50.222Z,22.7
2018-04-08T02:43:59.910Z,22.72
2018-04-08T02:45:09.069Z,22.6
2018-04-08T02:46:18.740Z,22.67
2018-04-08T02:47:27.641Z,22.72
2018-04-08T02:48:37.055Z,22.65
2018-04-08T02:49:46.747Z,22.73
2018-04-08T02:50:55.898Z,22.73
2018-04-08T02:52:05.100Z,22.7
2018-04-08T02:53:14.285Z,22.64
2018-04-08T02:54:22.924Z,22.67
2018-04-08T02:55:32.073Z,22.68
2018-04-08T02:56:41.232Z,22.58
2018-04-08T02:57:50.651Z,22.72
2018-04-08T02:58:59.815Z,22.61
2018-04-08T03:00:09.255Z,22.58
2018-04-08T03:01:18.413Z,22.68
2018-04-08T03:02:27.311Z,22.6
2018-04-08T03:03:36.514Z,22.73
2018-04-08T03:04:45.939Z,22.61
2018-04-08T03:05:55.086Z,22.58
2018-04-08T03:07:04.012Z,22.7
2018-04-08T03:08:12.915Z,22.58
2018-04-08T03:09:22.322Z,22.61
2018-04-08T03:10:32.295Z,22.67
2018-04-08T03:11:41.204Z,22.58
2018-04-08T03:12:49.836Z,22.54
2018-04-08T03:13:59.000Z,22.72
2018-04-08T03:15:08.408Z,22.58
2018-04-08T03:16:17.551Z,22.6
2018-04-08T03:17:26.454Z,22.57
2018-04-08T03:18:35.611Z,22.61
2018-04-08T03:19:45.188Z,22.68
2018-04-08T03:20:53.834Z,22.6
2018-04-08T03:22:02.989Z,22.61
2018-04-08T03:23:12.400Z,22.61
2018-04-08T03:24:22.069Z,22.61
2018-04-08T03:25:30.701Z,22.58
2018-04-08T03:26:39.847Z,22.62
2018-04-08T03:27:49.271Z,22.58
2018-04-08T03:28:58.939Z,22.6
2018-04-08T03:30:07.833Z,22.58
2018-04-08T03:31:17.293Z,22.58
2018-04-08T03:32:26.203Z,22.61
2018-04-08T03:33:35.385Z,22.57
2018-04-08T03:34:44.015Z,22.6
2018-04-08T03:35:52.904Z,22.62
2018-04-08T03:37:01.799Z,22.58
2018-04-08T03:38:10.429Z,22.61
2018-04-08T03:39:19.609Z,22.62
2018-04-08T03:40:28.507Z,22.58
2018-04-08T03:41:37.667Z,22.67
2018-04-08T03:42:46.297Z,22.58
2018-04-08T03:43:55.446Z,22.65
2018-04-08T03:45:04.640Z,22.61
2018-04-08T03:46:13.809Z,22.61
2018-04-08T03:47:22.689Z,22.6
2018-04-08T03:48:31.594Z,22.61
2018-04-08T03:49:41.001Z,22.57
2018-04-08T03:50:49.890Z,22.55
2018-04-08T03:51:58.832Z,22.57
2018-04-08T03:53:07.976Z,22.58
2018-04-08T03:54:16.637Z,22.61
2018-04-08T03:55:26.044Z,22.6
2018-04-08T03:56:34.674Z,22.6
2018-04-08T03:57:43.821Z,22.58
2018-04-08T03:58:53.502Z,22.58
2018-04-08T04:00:02.904Z,22.58
2018-04-08T04:01:12.101Z,22.54
2018-04-08T04:02:21.001Z,22.61
2018-04-08T04:03:30.186Z,22.58
2018-04-08T04:04:39.351Z,22.61
2018-04-08T04:05:47.979Z,22.52
2018-04-08T04:06:57.645Z,22.58
2018-04-08T04:08:07.354Z,22.67
2018-04-08T04:09:16.249Z,22.64
2018-04-08T04:10:25.406Z,22.67
2018-04-08T04:11:34.576Z,22.67
2018-04-08T04:12:43.518Z,22.67
2018-04-08T04:13:52.663Z,22.58
2018-04-08T04:15:01.656Z,22.58
2018-04-08T04:16:10.796Z,22.65
2018-04-08T04:17:19.952Z,22.57
2018-04-08T04:18:28.850Z,22.57
2018-04-08T04:19:38.522Z,22.7
2018-04-08T04:20:47.416Z,22.64
2018-04-08T04:21:56.857Z,22.7
2018-04-08T04:23:06.259Z,22.7
2018-04-08T04:24:15.406Z,22.58
2018-04-08T04:25:24.843Z,22.55
2018-04-08T04:26:33.720Z,22.68
2018-04-08T04:27:42.364Z,22.58
2018-04-08T04:28:51.255Z,22.7
2018-04-08T04:30:00.396Z,22.6
2018-04-08T04:31:09.322Z,22.67
2018-04-08T04:32:18.710Z,22.55
2018-04-08T04:33:27.419Z,22.64
2018-04-08T04:34:36.320Z,22.68
2018-04-08T04:35:45.744Z,22.58
2018-04-08T04:36:54.925Z,22.64
2018-04-08T04:38:03.810Z,22.57
2018-04-08T04:39:12.969Z,22.65
2018-04-08T04:40:21.898Z,22.6
2018-04-08T04:41:31.357Z,22.7
2018-04-08T04:42:39.986Z,22.57
2018-04-08T04:43:49.441Z,22.6
2018-04-08T04:44:58.327Z,22.6
2018-04-08T04:46:07.496Z,22.61
2018-04-08T04:47:16.379Z,22.57
2018-04-08T04:48:25.025Z,22.6
2018-04-08T04:49:33.669Z,22.6
2018-04-08T04:50:43.327Z,22.61
2018-04-08T04:51:51.975Z,22.61
2018-04-08T04:53:00.600Z,22.58
2018-04-08T04:54:09.779Z,22.61
2018-04-08T04:55:18.696Z,22.55
2018-04-08T04:56:27.590Z,22.55
2018-04-08T04:57:37.001Z,22.58
2018-04-08T04:58:45.627Z,22.61
2018-04-08T04:59:54.541Z,22.55
2018-04-08T05:01:03.684Z,22.58
2018-04-08T05:02:12.862Z,22.61
2018-04-08T05:03:22.282Z,22.62
2018-04-08T05:04:31.183Z,22.52
2018-04-08T05:05:41.547Z,22.54
2018-04-08T05:06:50.438Z,22.6
2018-04-08T05:07:59.610Z,22.62
2018-04-08T05:09:08.765Z,22.58
2018-04-08T05:10:18.502Z,22.6
2018-04-08T05:11:27.652Z,22.61
2018-04-08T05:12:36.814Z,22.58
2018-04-08T05:13:46.563Z,22.57
2018-04-08T05:14:55.989Z,22.62
2018-04-08T05:16:04.618Z,22.58
2018-04-08T05:17:13.768Z,22.55
2018-04-08T05:18:22.725Z,22.62
2018-04-08T05:19:31.939Z,22.62
2018-04-08T05:20:40.841Z,22.6
2018-04-08T05:21:50.241Z,22.6
2018-04-08T05:22:58.883Z,22.6
2018-04-08T05:24:07.788Z,22.52
2018-04-08T05:25:16.967Z,22.62
2018-04-08T05:26:25.872Z,22.58
2018-04-08T05:27:34.777Z,22.6
2018-04-08T05:28:43.434Z,22.57
2018-04-08T05:29:52.581Z,22.58
2018-04-08T05:31:01.735Z,22.49
2018-04-08T05:32:10.882Z,22.58
2018-04-08T05:33:20.286Z,22.52
2018-04-08T05:34:29.942Z,22.61
2018-04-08T05:35:39.087Z,22.54
2018-04-08T05:36:48.225Z,22.61
2018-04-08T05:37:57.407Z,22.62
2018-04-08T05:39:06.799Z,22.58
2018-04-08T05:40:15.714Z,22.62
2018-04-08T05:41:24.402Z,22.57
2018-04-08T05:42:34.074Z,22.57
2018-04-08T05:43:43.227Z,22.58
2018-04-08T05:44:52.386Z,22.61
2018-04-08T05:46:01.288Z,22.57
2018-04-08T05:47:10.438Z,22.64
2018-04-08T05:48:19.880Z,22.58
2018-04-08T05:49:28.765Z,22.6
2018-04-08T05:50:37.439Z,22.55
2018-04-08T05:51:46.334Z,22.65
2018-04-08T05:52:55.485Z,22.55
2018-04-08T05:54:04.676Z,22.55
2018-04-08T05:55:13.308Z,22.61
2018-04-08T05:56:22.480Z,22.52
2018-04-08T05:57:31.381Z,22.52
2018-04-08T05:58:40.525Z,22.57
2018-04-08T05:59:49.950Z,22.58
2018-04-08T06:00:59.382Z,22.51
2018-04-08T06:02:08.549Z,22.61
2018-04-08T06:03:17.460Z,22.61
2018-04-08T06:04:26.916Z,22.57
2018-04-08T06:05:36.319Z,22.61
2018-04-08T06:06:45.212Z,22.54
2018-04-08T06:07:54.362Z,22.62
2018-04-08T06:09:03.522Z,22.49
2018-04-08T06:10:13.303Z,22.52
2018-04-08T06:11:22.720Z,22.55
2018-04-08T06:12:32.162Z,22.62
2018-04-08T06:13:41.314Z,22.51
2018-04-08T06:14:50.485Z,22.64
2018-04-08T06:15:59.631Z,22.52
2018-04-08T06:17:08.261Z,22.54
2018-04-08T06:18:17.155Z,22.64
2018-04-08T06:19:26.296Z,22.54
2018-04-08T06:20:35.243Z,22.62
2018-04-08T06:21:44.414Z,22.57
2018-04-08T06:22:54.072Z,22.54
2018-04-08T06:24:02.990Z,22.52
2018-04-08T06:25:11.628Z,22.47
2018-04-08T06:26:20.771Z,22.54
2018-04-08T06:27:29.916Z,22.49
2018-04-08T06:28:38.545Z,22.55
2018-04-08T06:29:47.983Z,22.57
2018-04-08T06:30:57.408Z,22.49
2018-04-08T06:32:06.578Z,22.67
2018-04-08T06:33:15.471Z,22.57
2018-04-08T06:34:24.356Z,22.57
2018-04-08T06:35:32.993Z,22.61
2018-04-08T06:36:42.138Z,22.52
2018-04-08T06:37:51.355Z,22.64
2018-04-08T06:39:00.018Z,22.67
2018-04-08T06:40:09.193Z,22.65
2018-04-08T06:41:19.443Z,22.55
2018-04-08T06:42:28.846Z,22.6
2018-04-08T06:43:38.013Z,22.6
2018-04-08T06:44:47.178Z,22.51
2018-04-08T06:45:56.072Z,22.6
2018-04-08T06:47:05.236Z,22.54
2018-04-08T06:48:14.646Z,22.55
2018-04-08T06:49:23.824Z,22.62
2018-04-08T06:50:33.029Z,22.55
2018-04-08T06:51:41.935Z,22.54
2018-04-08T06:52:50.660Z,22.57
2018-04-08T06:53:59.595Z,22.58
2018-04-08T06:55:09.025Z,22.55
2018-04-08T06:56:18.186Z,22.52
2018-04-08T06:57:27.090Z,22.61
2018-04-08T06:58:35.981Z,22.57
2018-04-08T06:59:45.644Z,22.54
2018-04-08T07:00:55.036Z,22.64
2018-04-08T07:02:04.201Z,22.57
2018-04-08T07:03:14.132Z,22.58
2018-04-08T07:04:23.276Z,22.61
2018-04-08T07:05:31.921Z,22.57
2018-04-08T07:06:41.340Z,22.54
2018-04-08T07:07:50.241Z,22.64
2018-04-08T07:08:59.414Z,22.58
2018-04-08T07:10:08.576Z,22.61
2018-04-08T07:11:17.518Z,22.54
2018-04-08T07:12:26.419Z,22.6
2018-04-08T07:13:35.056Z,22.55
2018-04-08T07:14:44.462Z,22.64
2018-04-08T07:15:53.391Z,22.64
2018-04-08T07:17:02.550Z,22.55
2018-04-08T07:18:11.447Z,22.67
2018-04-08T07:19:20.596Z,22.65
2018-04-08T07:20:29.735Z,22.57
2018-04-08T07:21:38.373Z,22.57
2018-04-08T07:22:47.577Z,22.6
2018-04-08T07:23:56.760Z,22.6
2018-04-08T07:25:05.908Z,22.6
2018-04-08T07:26:14.798Z,22.62
2018-04-08T07:27:24.240Z,22.68
2018-04-08T07:28:33.390Z,22.61
2018-04-08T07:29:43.063Z,22.58
2018-04-08T07:30:51.980Z,22.61
2018-04-08T07:32:01.129Z,22.55
2018-04-08T07:33:10.283Z,22.6
2018-04-08T07:34:18.944Z,22.58
2018-04-08T07:35:28.096Z,22.58
2018-04-08T07:36:37.267Z,22.67
2018-04-08T07:37:46.157Z,22.64
2018-04-08T07:38:54.788Z,22.57
2018-04-08T07:40:03.933Z,22.61
2018-04-08T07:41:13.084Z,22.58
2018-04-08T07:42:22.572Z,22.64
2018-04-08T07:43:31.467Z,22.67
2018-04-08T07:44:40.184Z,22.58
2018-04-08T07:45:49.319Z,22.57
2018-04-08T07:46:58.480Z,22.6
2018-04-08T07:48:07.453Z,22.64
2018-04-08T07:49:17.131Z,22.6
2018-04-08T07:50:26.074Z,22.6
2018-04-08T07:51:35.036Z,22.57
2018-04-08T07:52:44.266Z,22.7
2018-04-08T07:53:52.905Z,22.57
2018-04-08T07:55:01.562Z,22.61
2018-04-08T07:56:10.207Z,22.58
2018-04-08T07:57:19.625Z,22.61
2018-04-08T07:58:28.782Z,22.6
2018-04-08T07:59:37.931Z,22.75
2018-04-08T08:00:47.341Z,22.6
2018-04-08T08:01:57.271Z,22.64
2018-04-08T08:03:06.468Z,22.6
2018-04-08T08:04:15.929Z,22.6
2018-04-08T08:05:25.471Z,22.55
2018-04-08T08:06:35.633Z,22.62
2018-04-08T08:07:46.031Z,22.57
2018-04-08T08:08:55.513Z,22.55
2018-04-08T08:10:04.168Z,22.61
2018-04-08T08:11:13.988Z,22.61
2018-04-08T08:12:23.252Z,22.62
2018-04-08T08:13:34.112Z,22.61
2018-04-08T08:14:43.839Z,22.64
2018-04-08T08:15:53.378Z,22.67
2018-04-08T08:17:02.381Z,22.64
2018-04-08T08:18:11.563Z,22.72
2018-04-08T08:19:20.739Z,22.67
2018-04-08T08:20:29.932Z,22.62
2018-04-08T08:21:39.102Z,22.64
2018-04-08T08:22:48.271Z,22.6
2018-04-08T08:23:57.146Z,22.67
2018-04-08T08:25:06.322Z,22.67
2018-04-08T08:26:15.480Z,22.61
2018-04-08T08:27:24.640Z,22.67
2018-04-08T08:28:33.956Z,22.67
2018-04-08T08:29:42.848Z,22.65
2018-04-08T08:30:52.277Z,22.67
2018-04-08T08:32:01.466Z,22.7
2018-04-08T08:33:10.350Z,22.72
2018-04-08T08:34:19.768Z,22.67
2018-04-08T08:35:28.917Z,22.72
2018-04-08T08:36:37.836Z,22.72
2018-04-08T08:37:47.011Z,22.72
2018-04-08T08:38:56.421Z,22.72
2018-04-08T08:40:05.841Z,22.7
2018-04-08T08:41:14.735Z,22.68
2018-04-08T08:42:24.157Z,22.72
2018-04-08T08:43:33.054Z,22.72
2018-04-08T08:44:41.989Z,22.7
2018-04-08T08:45:51.463Z,22.72
2018-04-08T08:47:00.376Z,22.73
2018-04-08T08:48:09.533Z,22.67
2018-04-08T08:49:18.517Z,22.67
2018-04-08T08:50:27.411Z,22.67
2018-04-08T08:51:36.632Z,22.67
2018-04-08T08:52:45.265Z,22.6
2018-04-08T08:53:54.180Z,22.61
2018-04-08T08:55:03.779Z,22.72
2018-04-08T08:56:12.693Z,22.72
2018-04-08T08:57:21.618Z,22.7
2018-04-08T08:58:30.243Z,22.67
2018-04-08T08:59:39.164Z,22.72
2018-04-08T09:00:48.310Z,22.62
2018-04-08T09:01:58.046Z,22.73
2018-04-08T09:03:06.947Z,22.6
2018-04-08T09:04:16.139Z,22.6
2018-04-08T09:05:24.768Z,22.6
2018-04-08T09:06:34.216Z,22.68
2018-04-08T09:07:43.828Z,22.57
2018-04-08T09:08:53.243Z,22.64
2018-04-08T09:10:02.677Z,22.67
2018-04-08T09:11:11.826Z,22.57
2018-04-08T09:12:20.715Z,22.64
2018-04-08T09:13:29.605Z,22.7
2018-04-08T09:14:39.041Z,22.61
2018-04-08T09:15:47.923Z,22.6
2018-04-08T09:16:56.849Z,22.61
2018-04-08T09:18:05.744Z,22.6
2018-04-08T09:19:14.904Z,22.68
2018-04-08T09:20:23.794Z,22.64
2018-04-08T09:21:32.443Z,22.6
2018-04-08T09:22:41.354Z,22.58
2018-04-08T09:23:50.753Z,22.58
2018-04-08T09:24:59.711Z,22.64
2018-04-08T09:26:08.889Z,22.58
2018-04-08T09:27:17.848Z,22.67
2018-04-08T09:28:26.779Z,22.61
2018-04-08T09:29:35.700Z,22.61
2018-04-08T09:30:44.331Z,22.65
2018-04-08T09:31:53.229Z,22.6
2018-04-08T09:33:02.441Z,22.61
2018-04-08T09:34:11.885Z,22.67
2018-04-08T09:35:21.319Z,22.61
2018-04-08T09:36:30.573Z,22.61
2018-04-08T09:37:39.743Z,22.62
2018-04-08T09:38:48.914Z,22.65
2018-04-08T09:39:57.556Z,22.67
2018-04-08T09:41:06.237Z,22.72
2018-04-08T09:42:15.958Z,22.7
2018-04-08T09:43:25.113Z,22.73
2018-04-08T09:44:34.035Z,22.67
2018-04-08T09:45:42.941Z,22.68
2018-04-08T09:46:52.372Z,22.64
2018-04-08T09:48:01.018Z,22.68
2018-04-08T09:49:10.177Z,22.64
2018-04-08T09:50:19.323Z,22.61
2018-04-08T09:51:28.215Z,22.7
2018-04-08T09:52:36.872Z,22.72
2018-04-08T09:53:46.553Z,22.75
2018-04-08T09:54:55.761Z,22.75
2018-04-08T09:56:04.445Z,22.73
2018-04-08T09:57:13.873Z,22.72
2018-04-08T09:58:23.053Z,22.75
2018-04-08T09:59:32.491Z,22.68
2018-04-08T10:00:41.396Z,22.65
2018-04-08T10:01:50.588Z,22.76
2018-04-08T10:02:59.760Z,22.73
2018-04-08T10:04:09.175Z,22.79
2018-04-08T10:05:17.830Z,22.76
2018-04-08T10:06:27.308Z,22.82
2018-04-08T10:07:36.501Z,22.75
2018-04-08T10:08:45.605Z,22.79
2018-04-08T10:09:55.215Z,22.79
2018-04-08T10:11:04.800Z,22.82
2018-04-08T10:12:13.723Z,22.85
2018-04-08T10:13:23.446Z,22.82
2018-04-08T10:14:32.670Z,22.79
2018-04-08T10:15:41.896Z,22.8
2018-04-08T10:16:51.172Z,22.79
2018-04-08T10:17:59.827Z,22.85
2018-04-08T10:19:08.713Z,22.88
2018-04-08T10:20:17.361Z,22.88
2018-04-08T10:21:26.016Z,22.91
2018-04-08T10:22:34.915Z,22.88
2018-04-08T10:23:43.803Z,22.83
2018-04-08T10:24:52.726Z,22.91
2018-04-08T10:26:01.670Z,22.88
2018-04-08T10:27:10.824Z,22.98
2018-04-08T10:28:19.747Z,22.86
2018-04-08T10:29:28.379Z,22.95
2018-04-08T10:30:37.011Z,22.95
2018-04-08T10:31:45.643Z,22.82
2018-04-08T10:32:54.809Z,22.97
2018-04-08T10:34:03.728Z,22.98
2018-04-08T10:35:12.646Z,22.91
2018-04-08T10:36:21.543Z,22.9
2018-04-08T10:37:30.458Z,23.01
2018-04-08T10:38:39.416Z,22.98
2018-04-08T10:39:48.311Z,22.97
2018-04-08T10:40:57.505Z,22.98
2018-04-08T10:42:06.143Z,22.98
2018-04-08T10:43:15.047Z,23.01
2018-04-08T10:44:24.728Z,23.01
2018-04-08T10:45:33.896Z,23
2018-04-08T10:46:43.061Z,23.04
2018-04-08T10:47:51.969Z,23.04
2018-04-08T10:49:01.124Z,23.07
2018-04-08T10:50:10.022Z,23.02
2018-04-08T10:51:19.475Z,23.04
2018-04-08T10:52:28.636Z,23.09
2018-04-08T10:53:37.810Z,23.04
2018-04-08T10:54:47.528Z,23.09
2018-04-08T10:55:57.248Z,23
2018-04-08T10:57:06.683Z,23.05
2018-04-08T10:58:15.981Z,23
2018-04-08T10:59:24.905Z,23.05
2018-04-08T11:00:34.074Z,23.05
2018-04-08T11:01:43.489Z,23.02
2018-04-08T11:02:52.372Z,22.97
2018-04-08T11:04:01.798Z,23.04
2018-04-08T11:05:11.207Z,23.05
2018-04-08T11:06:20.349Z,23.02
2018-04-08T11:07:29.256Z,23.02
2018-04-08T11:08:38.142Z,23.05
2018-04-08T11:09:47.295Z,23.07
2018-04-08T11:10:56.452Z,23.05
2018-04-08T11:12:05.643Z,23.04
2018-04-08T11:13:15.056Z,23.07
2018-04-08T11:14:24.221Z,23.04
2018-04-08T11:15:33.639Z,23.04
2018-04-08T11:16:42.783Z,23
2018-04-08T11:17:51.965Z,23.01
2018-04-08T11:19:01.647Z,23.01
2018-04-08T11:20:11.099Z,23
2018-04-08T11:21:20.015Z,23
2018-04-08T11:22:29.662Z,22.97
2018-04-08T11:23:39.042Z,22.97
2018-04-08T11:24:48.189Z,23.04
2018-04-08T11:25:57.100Z,22.94
2018-04-08T11:27:05.800Z,22.95
2018-04-08T11:28:15.215Z,22.94
2018-04-08T11:29:24.409Z,22.98
2018-04-08T11:30:33.307Z,23.01
2018-04-08T11:31:42.234Z,22.97
2018-04-08T11:32:50.933Z,22.94
2018-04-08T11:34:00.081Z,22.92
2018-04-08T11:35:08.762Z,22.95
2018-04-08T11:36:17.652Z,23
2018-04-08T11:37:26.548Z,22.94
2018-04-08T11:38:35.435Z,22.97
2018-04-08T11:39:44.887Z,22.9
2018-04-08T11:40:53.780Z,22.97
2018-04-08T11:42:03.257Z,22.97
2018-04-08T11:43:12.422Z,22.88
2018-04-08T11:44:21.605Z,22.9
2018-04-08T11:45:30.506Z,22.94
2018-04-08T11:46:39.961Z,22.91
2018-04-08T11:47:48.897Z,22.97
2018-04-08T11:48:57.835Z,22.92
2018-04-08T11:50:07.550Z,22.97
2018-04-08T11:51:16.459Z,23
2018-04-08T11:52:25.899Z,22.88
2018-04-08T11:53:35.393Z,22.98
2018-04-08T11:54:44.574Z,22.92
2018-04-08T11:55:53.202Z,22.94
2018-04-08T11:57:02.607Z,22.98
2018-04-08T11:58:11.497Z,22.94
2018-04-08T11:59:20.150Z,22.97
2018-04-08T12:00:29.299Z,22.92
2018-04-08T12:01:38.204Z,22.94
2018-04-08T12:02:47.365Z,23.01
2018-04-08T12:03:56.781Z,22.97
2018-04-08T12:05:06.180Z,22.97
2018-04-08T12:06:14.813Z,22.92
2018-04-08T12:07:23.705Z,22.97
2018-04-08T12:08:32.596Z,22.95
2018-04-08T12:09:42.005Z,22.92
2018-04-08T12:10:50.902Z,22.94
2018-04-08T12:12:00.140Z,22.92
2018-04-08T12:13:09.313Z,22.98
2018-04-08T12:14:18.456Z,22.94
2018-04-08T12:15:27.630Z,22.94
2018-04-08T12:16:36.508Z,22.9
2018-04-08T12:17:45.404Z,22.98
2018-04-08T12:18:54.576Z,22.91
2018-04-08T12:20:03.732Z,22.91
2018-04-08T12:21:13.154Z,22.97
2018-04-08T12:22:22.087Z,22.98
2018-04-08T12:23:31.233Z,23.02
2018-04-08T12:24:40.229Z,23.02
2018-04-08T12:25:48.856Z,22.95
2018-04-08T12:26:57.993Z,22.97
2018-04-08T12:28:06.930Z,22.94
2018-04-08T12:29:15.814Z,22.94
2018-04-08T12:30:25.229Z,22.98
2018-04-08T12:31:33.859Z,22.94
2018-04-08T12:32:42.492Z,23.01
2018-04-08T12:33:51.658Z,22.97
2018-04-08T12:35:00.554Z,22.95
2018-04-08T12:36:09.446Z,22.97
2018-04-08T12:37:18.355Z,22.94
2018-04-08T12:38:27.766Z,23.01
2018-04-08T12:39:39.824Z,23
2018-04-08T12:40:50.825Z,22.97
2018-04-08T12:42:00.511Z,22.95
2018-04-08T12:43:09.682Z,23.04
2018-04-08T12:44:19.144Z,22.97
2018-04-08T12:45:28.024Z,22.95
2018-04-08T12:46:36.916Z,23
2018-04-08T12:47:46.323Z,23.02
2018-04-08T12:48:55.460Z,23.04
2018-04-08T12:50:04.626Z,23.04
2018-04-08T12:51:13.517Z,23.07
2018-04-08T12:52:22.204Z,23.02
2018-04-08T12:53:31.345Z,23.02
2018-04-08T12:54:40.494Z,23.04
2018-04-08T12:55:49.390Z,23.01
2018-04-08T12:56:58.280Z,23.12
2018-04-08T12:58:07.189Z,23.04
2018-04-08T12:59:16.618Z,23.04
2018-04-08T13:00:25.766Z,23.05
2018-04-08T13:01:35.027Z,23.05
2018-04-08T13:02:43.914Z,23
2018-04-08T13:03:52.800Z,23.02
2018-04-08T13:05:01.454Z,22.98
2018-04-08T13:06:10.348Z,23.01
2018-04-08T13:07:19.245Z,23.05
2018-04-08T13:08:28.638Z,23.07
2018-04-08T13:09:37.689Z,23.07
2018-04-08T13:10:46.873Z,23.07
2018-04-08T13:11:56.286Z,23.04
2018-04-08T13:13:05.524Z,23.09
2018-04-08T13:14:14.759Z,23.07
2018-04-08T13:15:24.811Z,23.05
2018-04-08T13:16:35.035Z,23.07
2018-04-08T13:17:44.087Z,23.15
2018-04-08T13:18:53.344Z,23.17
2018-04-08T13:20:02.868Z,23.15
2018-04-08T13:21:14.037Z,23.15
2018-04-08T13:22:24.076Z,23.15
2018-04-08T13:23:33.351Z,23.17
2018-04-08T13:24:42.571Z,23.13
2018-04-08T13:25:52.117Z,23.23
2018-04-08T13:27:01.626Z,23.25
2018-04-08T13:28:11.045Z,23.27
2018-04-08T13:29:20.024Z,23.25
2018-04-08T13:30:28.664Z,23.25
2018-04-08T13:31:38.297Z,23.16
2018-04-08T13:32:47.336Z,23.27
2018-04-08T13:33:56.716Z,23.28
2018-04-08T13:35:07.530Z,23.28
2018-04-08T13:36:17.022Z,23.28
2018-04-08T13:37:26.649Z,23.27
2018-04-08T13:38:36.065Z,23.28
2018-04-08T13:39:45.020Z,23.23
2018-04-08T13:40:55.222Z,23.38
2018-04-08T13:42:05.047Z,23.39
2018-04-08T13:43:14.342Z,23.39
2018-04-08T13:44:23.377Z,23.38
2018-04-08T13:45:32.424Z,23.39
2018-04-08T13:46:42.746Z,23.36
2018-04-08T13:47:52.372Z,23.39
2018-04-08T13:49:01.543Z,23.35
2018-04-08T13:50:11.036Z,23.43
2018-04-08T13:51:20.330Z,23.48
2018-04-08T13:52:29.536Z,23.38
2018-04-08T13:53:39.049Z,23.42
2018-04-08T13:54:47.992Z,23.4
2018-04-08T13:55:57.308Z,23.42
2018-04-08T13:57:06.249Z,23.43
2018-04-08T13:58:15.693Z,23.51
2018-04-08T13:59:24.420Z,23.48
2018-04-08T14:00:33.752Z,23.46
2018-04-08T14:01:43.625Z,23.51
2018-04-08T14:02:52.550Z,23.53
2018-04-08T14:04:02.356Z,23.51
2018-04-08T14:05:11.820Z,23.55
2018-04-08T14:06:20.846Z,23.51
2018-04-08T14:07:30.351Z,23.53
2018-04-08T14:08:39.627Z,23.58
2018-04-08T14:09:49.265Z,23.61
2018-04-08T14:10:57.913Z,23.63
2018-04-08T14:12:08.617Z,23.58
2018-04-08T14:13:17.450Z,23.6
2018-04-08T14:14:27.810Z,23.63
2018-04-08T14:15:36.613Z,23.65
2018-04-08T14:16:46.121Z,23.6
2018-04-08T14:17:55.572Z,23.69
2018-04-08T14:19:05.241Z,23.65
2018-04-08T14:20:14.949Z,23.72
2018-04-08T14:21:24.184Z,23.66
2018-04-08T14:22:33.115Z,23.68
2018-04-08T14:23:42.007Z,23.72
2018-04-08T14:24:51.169Z,23.73
2018-04-08T14:26:00.330Z,23.76
2018-04-08T14:27:09.272Z,23.65
2018-04-08T14:28:18.204Z,23.87
2018-04-08T14:29:27.613Z,23.69
2018-04-08T14:30:36.257Z,23.75
2018-04-08T14:31:45.216Z,23.72
2018-04-08T14:32:54.101Z,23.87
2018-04-08T14:34:03.905Z,23.84
2018-04-08T14:35:13.057Z,23.79
2018-04-08T14:36:22.206Z,23.75
2018-04-08T14:37:31.217Z,23.79
2018-04-08T14:38:40.845Z,23.78
2018-04-08T14:39:49.980Z,23.85
2018-04-08T14:40:58.975Z,23.69
2018-04-08T14:42:07.558Z,23.76
2018-04-08T14:43:16.584Z,23.7
2018-04-08T14:44:25.563Z,23.79
2018-04-08T14:45:34.709Z,23.84
2018-04-08T14:46:44.193Z,23.73
2018-04-08T14:47:53.301Z,23.83
2018-04-08T14:49:01.961Z,23.75
2018-04-08T14:50:11.379Z,23.83
2018-04-08T14:51:20.555Z,23.68
2018-04-08T14:52:29.472Z,23.7
2018-04-08T14:53:38.360Z,23.76
2018-04-08T14:54:47.257Z,23.78